createdAt,value
2018-09-22T00:00:31.664Z,94269.20
2018-09-22T00:03:01.036Z,94284.16
2018-09-22T00:05:30.499Z,94294.09
2018-09-22T00:08:00.040Z,94304.70
2018-09-22T00:10:30.262Z,94314.87
2018-09-22T00:12:59.352Z,94316.01
2018-09-22T00:15:28.425Z,94312.11
2018-09-22T00:17:57.512Z,94331.27
2018-09-22T00:20:26.536Z,94353.55
2018-09-22T00:22:55.647Z,94363.90
2018-09-22T00:25:24.632Z,94379.36
2018-09-22T00:27:53.672Z,94395.75
2018-09-22T00:30:23.958Z,94399.77
2018-09-22T00:32:53.358Z,94403.88
2018-09-22T00:35:24.092Z,94408.80
2018-09-22T00:37:53.391Z,94421.00
2018-09-22T00:40:22.444Z,94436.61
2018-09-22T00:42:51.894Z,94445.01
2018-09-22T00:45:21.498Z,94462.94
2018-09-22T00:47:50.798Z,94473.52
2018-09-22T00:50:19.809Z,94490.70
2018-09-22T00:52:48.850Z,94506.06
2018-09-22T00:55:17.842Z,94515.77
2018-09-22T00:57:47.296Z,94526.91
2018-09-22T01:00:16.336Z,94552.88
2018-09-22T01:02:45.357Z,94570.37
2018-09-22T01:05:14.403Z,94578.87
2018-09-22T01:07:43.505Z,94585.74
2018-09-22T01:10:12.530Z,94596.16
2018-09-22T01:12:41.841Z,94593.61
2018-09-22T01:15:10.921Z,94610.20
2018-09-22T01:17:39.936Z,94607.44
2018-09-22T01:20:09.387Z,94608.88
2018-09-22T01:22:38.763Z,94599.36
2018-09-22T01:25:08.164Z,94606.58
2018-09-22T01:27:37.466Z,94616.92
2018-09-22T01:30:06.470Z,94638.81
2018-09-22T01:32:35.536Z,94644.11
2018-09-22T01:35:04.853Z,94656.99
2018-09-22T01:37:34.568Z,94667.34
2018-09-22T01:40:03.722Z,94689.94
2018-09-22T01:42:32.725Z,94697.48
2018-09-22T01:45:01.776Z,94697.03
2018-09-22T01:47:31.154Z,94715.05
2018-09-22T01:50:00.176Z,94727.17
2018-09-22T01:52:29.219Z,94722.88
2018-09-22T01:54:58.274Z,94714.52
2018-09-22T01:57:27.470Z,94718.00
2018-09-22T01:59:56.499Z,94723.00
2018-09-22T02:02:25.932Z,94728.80
2018-09-22T02:04:55.339Z,94721.27
2018-09-22T02:07:24.738Z,94715.45
2018-09-22T02:09:53.783Z,94727.50
2018-09-22T02:12:22.803Z,94732.84
2018-09-22T02:14:51.770Z,94748.55
2018-09-22T02:17:20.815Z,94759.22
2018-09-22T02:19:49.796Z,94752.20
2018-09-22T02:22:18.823Z,94746.88
2018-09-22T02:24:47.834Z,94740.11
2018-09-22T02:27:17.201Z,94751.48
2018-09-22T02:29:46.406Z,94749.05
2018-09-22T02:32:15.477Z,94737.83
2018-09-22T02:34:44.501Z,94741.11
2018-09-22T02:37:13.725Z,94745.52
2018-09-22T02:39:42.736Z,94745.83
2018-09-22T02:42:12.178Z,94757.34
2018-09-22T02:44:41.616Z,94758.68
2018-09-22T02:47:10.997Z,94755.95
2018-09-22T02:49:40.019Z,94761.92
2018-09-22T02:52:09.023Z,94762.30
2018-09-22T02:54:38.105Z,94766.94
2018-09-22T02:57:07.255Z,94783.30
2018-09-22T02:59:36.269Z,94775.44
2018-09-22T03:02:05.420Z,94767.89
2018-09-22T03:04:34.503Z,94752.98
2018-09-22T03:07:03.634Z,94752.69
2018-09-22T03:09:32.645Z,94759.38
2018-09-22T03:12:01.720Z,94766.29
2018-09-22T03:14:30.933Z,94760.28
2018-09-22T03:17:00.156Z,94754.88
2018-09-22T03:19:29.203Z,94751.82
2018-09-22T03:21:58.550Z,94755.88
2018-09-22T03:24:27.946Z,94752.69
2018-09-22T03:26:57.247Z,94769.07
2018-09-22T03:29:26.265Z,94778.91
2018-09-22T03:31:55.254Z,94777.57
2018-09-22T03:34:24.741Z,94774.36
2018-09-22T03:36:53.935Z,94771.92
2018-09-22T03:39:22.952Z,94767.15
2018-09-22T03:41:52.012Z,94781.23
2018-09-22T03:44:21.113Z,94789.02
2018-09-22T03:46:50.139Z,94788.83
2018-09-22T03:49:19.289Z,94790.42
2018-09-22T03:51:48.359Z,94802.43
2018-09-22T03:54:17.710Z,94796.34
2018-09-22T03:56:47.009Z,94800.42
2018-09-22T03:59:16.087Z,94795.47
2018-09-22T04:01:45.328Z,94794.47
2018-09-22T04:04:14.911Z,94800.06
2018-09-22T04:06:44.415Z,94799.67
2018-09-22T04:09:13.494Z,94804.39
2018-09-22T04:11:42.931Z,94802.30
2018-09-22T04:14:12.317Z,94806.96
2018-09-22T04:16:41.932Z,94817.06
2018-09-22T04:19:11.089Z,94804.37
2018-09-22T04:21:40.538Z,94814.33
2018-09-22T04:24:16.794Z,94807.36
2018-09-22T04:26:47.225Z,94799.89
2018-09-22T04:29:16.454Z,94793.70
2018-09-22T04:31:45.613Z,94800.87
2018-09-22T04:34:14.630Z,94819.52
2018-09-22T04:36:44.279Z,94822.38
2018-09-22T04:39:13.507Z,94822.77
2018-09-22T04:41:44.770Z,94806.83
2018-09-22T04:44:14.221Z,94793.57
2018-09-22T04:46:43.616Z,94803.22
2018-09-22T04:49:12.800Z,94803.78
2018-09-22T04:51:42.009Z,94800.06
2018-09-22T04:54:11.003Z,94793.86
2018-09-22T04:56:40.102Z,94806.38
2018-09-22T04:59:09.584Z,94808.48
2018-09-22T05:01:39.116Z,94825.22
2018-09-22T05:04:08.184Z,94826.38
2018-09-22T05:06:37.881Z,94816.58
2018-09-22T05:09:09.797Z,94819.28
2018-09-22T05:11:38.944Z,94811.86
2018-09-22T05:14:08.032Z,94812.36
2018-09-22T05:16:37.524Z,94830.55
2018-09-22T05:19:06.745Z,94836.55
2018-09-22T05:21:35.857Z,94840.36
2018-09-22T05:24:05.423Z,94836.03
2018-09-22T05:26:34.863Z,94837.27
2018-09-22T05:29:03.967Z,94837.62
2018-09-22T05:31:33.214Z,94844.62
2018-09-22T05:34:02.277Z,94838.34
2018-09-22T05:36:31.378Z,94846.14
2018-09-22T05:39:00.642Z,94853.81
2018-09-22T05:41:29.978Z,94857.64
2018-09-22T05:43:59.440Z,94858.95
2018-09-22T05:46:28.840Z,94855.72
2018-09-22T05:48:57.915Z,94855.38
2018-09-22T05:51:28.945Z,94857.58
2018-09-22T05:53:58.080Z,94849.27
2018-09-22T05:56:27.468Z,94857.27
2018-09-22T05:58:56.562Z,94838.68
2018-09-22T06:01:25.669Z,94841.64
2018-09-22T06:03:56.108Z,94830.75
2018-09-22T06:06:26.018Z,94837.32
2018-09-22T06:08:55.196Z,94837.52
2018-09-22T06:11:24.342Z,94833.22
2018-09-22T06:13:53.696Z,94829.95
2018-09-22T06:16:22.813Z,94834.67
2018-09-22T06:18:52.392Z,94831.67
2018-09-22T06:21:21.859Z,94825.55
2018-09-22T06:23:51.222Z,94844.42
2018-09-22T06:26:20.704Z,94846.14
2018-09-22T06:28:51.235Z,94847.02
2018-09-22T06:31:20.234Z,94835.08
2018-09-22T06:33:49.862Z,94850.88
2018-09-22T06:36:19.365Z,94841.87
2018-09-22T06:38:49.504Z,94832.27
2018-09-22T06:41:18.755Z,94838.03
2018-09-22T06:43:48.192Z,94843.08
2018-09-22T06:46:17.645Z,94840.45
2018-09-22T06:48:46.761Z,94826.17
2018-09-22T06:51:19.336Z,94832.40
2018-09-22T06:53:48.757Z,94830.83
2018-09-22T06:56:26.193Z,94825.87
2018-09-22T06:58:55.249Z,94816.70
2018-09-22T07:01:24.342Z,94806.97
2018-09-22T07:03:53.709Z,94813.32
2018-09-22T07:06:23.015Z,94805.13
2018-09-22T07:08:52.174Z,94801.05
2018-09-22T07:11:25.389Z,94796.14
2018-09-22T07:13:54.536Z,94798.92
2018-09-22T07:16:24.383Z,94798.65
2018-09-22T07:19:00.135Z,94795.42
2018-09-22T07:21:34.331Z,94791.72
2018-09-22T07:24:04.142Z,94795.92
2018-09-22T07:26:33.294Z,94801.55
2018-09-22T07:29:04.073Z,94796.72
2018-09-22T07:31:33.229Z,94804.53
2018-09-22T07:34:02.361Z,94809.02
2018-09-22T07:36:32.215Z,94809.42
2018-09-22T07:39:01.711Z,94816.46
2018-09-22T07:41:30.869Z,94813.23
2018-09-22T07:44:00.032Z,94813.00
2018-09-22T07:46:29.879Z,94813.91
2018-09-22T07:48:58.884Z,94807.05
2018-09-22T07:51:28.422Z,94803.98
2018-09-22T07:53:58.523Z,94811.41
2018-09-22T07:56:28.279Z,94821.39
2018-09-22T07:58:57.722Z,94819.36
2018-09-22T08:01:27.241Z,94820.72
2018-09-22T08:03:56.855Z,94835.11
2018-09-22T08:06:26.469Z,94827.58
2018-09-22T08:08:55.926Z,94826.80
2018-09-22T08:11:25.886Z,94818.22
2018-09-22T08:13:55.197Z,94816.88
2018-09-22T08:16:24.838Z,94824.45
2018-09-22T08:18:54.576Z,94834.46
2018-09-22T08:21:23.911Z,94833.52
2018-09-22T08:23:53.158Z,94845.63
2018-09-22T08:26:22.364Z,94845.14
2018-09-22T08:28:51.440Z,94853.58
2018-09-22T08:31:20.542Z,94840.37
2018-09-22T08:33:50.582Z,94837.88
2018-09-22T08:36:19.876Z,94832.41
2018-09-22T08:38:48.794Z,94836.06
2018-09-22T08:41:17.889Z,94842.28
2018-09-22T08:43:46.931Z,94838.45
2018-09-22T08:46:16.300Z,94847.16
2018-09-22T08:48:46.470Z,94857.17
2018-09-22T08:51:15.566Z,94849.37
2018-09-22T08:53:44.729Z,94854.61
2018-09-22T08:56:13.934Z,94848.31
2018-09-22T08:58:42.989Z,94842.96
2018-09-22T09:01:12.244Z,94850.00
2018-09-22T09:03:41.335Z,94845.90
2018-09-22T09:06:10.447Z,94841.06
2018-09-22T09:08:39.465Z,94827.50
2018-09-22T09:11:08.577Z,94837.01
2018-09-22T09:13:38.223Z,94847.22
2018-09-22T09:16:07.226Z,94850.64
2018-09-22T09:18:36.347Z,94853.16
2018-09-22T09:21:05.889Z,94861.70
2018-09-22T09:23:34.996Z,94866.52
2018-09-22T09:26:04.045Z,94857.23
2018-09-22T09:28:33.183Z,94842.32
2018-09-22T09:31:02.226Z,94836.85
2018-09-22T09:33:31.191Z,94833.23
2018-09-22T09:36:00.300Z,94827.19
2018-09-22T09:38:29.708Z,94832.39
2018-09-22T09:40:58.819Z,94834.66
2018-09-22T09:43:28.030Z,94823.86
2018-09-22T09:45:57.211Z,94832.69
2018-09-22T09:48:26.227Z,94821.31
2018-09-22T09:50:55.556Z,94821.99
2018-09-22T09:53:24.616Z,94824.11
2018-09-22T09:55:53.708Z,94815.89
2018-09-22T09:58:22.924Z,94812.24
2018-09-22T10:00:52.216Z,94822.67
2018-09-22T10:03:22.258Z,94818.72
2018-09-22T10:05:51.380Z,94808.18
2018-09-22T10:08:20.550Z,94804.62
2018-09-22T10:10:49.587Z,94790.23
2018-09-22T10:13:18.723Z,94780.98
2018-09-22T10:15:47.855Z,94788.74
2018-09-22T10:18:17.869Z,94787.10
2018-09-22T10:20:48.598Z,94780.58
2018-09-22T10:23:18.826Z,94779.67
2018-09-22T10:25:47.947Z,94775.70
2018-09-22T10:28:17.091Z,94771.20
2018-09-22T10:30:46.342Z,94770.23
2018-09-22T10:33:16.559Z,94766.97
2018-09-22T10:35:46.357Z,94761.17
2018-09-22T10:38:15.533Z,94769.30
2018-09-22T10:40:46.090Z,94769.07
2018-09-22T10:43:15.208Z,94766.36
2018-09-22T10:45:44.471Z,94765.73
2018-09-22T10:48:13.915Z,94762.26
2018-09-22T10:50:43.007Z,94756.98
2018-09-22T10:53:12.473Z,94750.48
2018-09-22T10:55:41.723Z,94761.53
2018-09-22T10:58:11.189Z,94765.00
2018-09-22T11:00:41.602Z,94760.04
2018-09-22T11:03:10.779Z,94759.05
2018-09-22T11:05:39.982Z,94760.33
2018-09-22T11:08:09.170Z,94761.30
2018-09-22T11:10:38.318Z,94747.91
2018-09-22T11:13:07.472Z,94744.94
2018-09-22T11:15:36.753Z,94750.97
2018-09-22T11:18:06.217Z,94737.82
2018-09-22T11:20:36.179Z,94730.66
2018-09-22T11:23:05.302Z,94729.46
2018-09-22T11:25:34.513Z,94721.26
2018-09-22T11:28:03.738Z,94716.91
2018-09-22T11:30:33.352Z,94706.80
2018-09-22T11:33:02.776Z,94697.89
2018-09-22T11:35:36.205Z,94700.77
2018-09-22T11:38:05.682Z,94697.36
2018-09-22T11:40:36.380Z,94697.98
2018-09-22T11:43:05.670Z,94710.54
2018-09-22T11:45:34.724Z,94707.45
2018-09-22T11:48:03.903Z,94712.69
2018-09-22T11:50:33.033Z,94715.08
2018-09-22T11:53:04.047Z,94713.73
2018-09-22T11:55:33.244Z,94703.66
2018-09-22T11:58:02.544Z,94708.67
2018-09-22T12:00:32.289Z,94704.82
2018-09-22T12:03:01.459Z,94697.02
2018-09-22T12:05:30.618Z,94692.48
2018-09-22T12:07:59.666Z,94693.09
2018-09-22T12:10:28.732Z,94690.03
2018-09-22T12:12:57.938Z,94688.55
2018-09-22T12:15:27.771Z,94693.84
2018-09-22T12:17:57.045Z,94692.70
2018-09-22T12:20:26.364Z,94685.47
2018-09-22T12:22:56.120Z,94679.78
2018-09-22T12:25:25.270Z,94673.51
2018-09-22T12:27:54.402Z,94685.19
2018-09-22T12:30:23.487Z,94674.63
2018-09-22T12:32:53.844Z,94670.84
2018-09-22T12:35:23.221Z,94663.36
2018-09-22T12:37:52.403Z,94665.56
2018-09-22T12:40:21.522Z,94661.04
2018-09-22T12:42:50.635Z,94665.72
2018-09-22T12:45:19.868Z,94665.01
2018-09-22T12:47:48.976Z,94668.30
2018-09-22T12:50:17.999Z,94662.64
2018-09-22T12:52:47.255Z,94668.96
2018-09-22T12:55:16.311Z,94668.58
2018-09-22T12:57:45.421Z,94664.28
2018-09-22T13:00:14.568Z,94665.91
2018-09-22T13:02:43.708Z,94674.59
2018-09-22T13:05:12.761Z,94670.23
2018-09-22T13:07:41.919Z,94668.86
2018-09-22T13:10:11.288Z,94663.73
2018-09-22T13:12:40.525Z,94661.43
2018-09-22T13:15:09.640Z,94659.08
2018-09-22T13:17:39.095Z,94660.98
2018-09-22T13:20:08.374Z,94651.14
2018-09-22T13:22:37.634Z,94643.38
2018-09-22T13:25:06.787Z,94636.10
2018-09-22T13:27:36.607Z,94639.36
2018-09-22T13:30:05.873Z,94651.23
2018-09-22T13:32:35.405Z,94656.25
2018-09-22T13:35:05.842Z,94653.27
2018-09-22T13:37:35.342Z,94646.02
2018-09-22T13:40:04.399Z,94637.86
2018-09-22T13:42:33.574Z,94638.78
2018-09-22T13:45:03.751Z,94631.86
2018-09-22T13:47:32.851Z,94621.73
2018-09-22T13:50:01.942Z,94613.33
2018-09-22T13:52:31.049Z,94608.61
2018-09-22T13:55:00.863Z,94612.06
2018-09-22T13:57:30.358Z,94611.89
2018-09-22T13:59:59.698Z,94614.38
2018-09-22T14:02:28.808Z,94613.13
2018-09-22T14:04:57.911Z,94600.89
2018-09-22T14:07:27.026Z,94604.83
2018-09-22T14:09:56.179Z,94616.70
2018-09-22T14:12:25.382Z,94611.05
2018-09-22T14:14:55.522Z,94597.11
2018-09-22T14:17:24.664Z,94594.53
2018-09-22T14:19:53.835Z,94591.02
2018-09-22T14:22:22.932Z,94581.60
2018-09-22T14:24:52.032Z,94571.27
2018-09-22T14:27:21.335Z,94568.80
2018-09-22T14:29:51.455Z,94570.25
2018-09-22T14:32:22.496Z,94565.05
2018-09-22T14:34:51.605Z,94564.39
2018-09-22T14:37:21.868Z,94561.18
2018-09-22T14:39:51.002Z,94560.17
2018-09-22T14:42:20.059Z,94566.58
2018-09-22T14:44:49.139Z,94561.17
2018-09-22T14:47:18.223Z,94564.80
2018-09-22T14:49:47.279Z,94564.53
2018-09-22T14:52:16.520Z,94566.31
2018-09-22T14:54:46.379Z,94558.49
2018-09-22T14:57:15.443Z,94565.79
2018-09-22T14:59:44.560Z,94565.55
2018-09-22T15:02:13.771Z,94571.54
2018-09-22T15:04:42.765Z,94576.46
2018-09-22T15:07:12.804Z,94577.60
2018-09-22T15:09:41.919Z,94580.92
2018-09-22T15:12:11.376Z,94575.55
2018-09-22T15:14:40.495Z,94571.53
2018-09-22T15:17:10.923Z,94576.26
2018-09-22T15:19:40.143Z,94578.34
2018-09-22T15:22:09.212Z,94579.59
2018-09-22T15:24:38.640Z,94572.81
2018-09-22T15:27:08.357Z,94577.39
2018-09-22T15:29:37.870Z,94583.05
2018-09-22T15:32:28.106Z,94572.59
2018-09-22T15:34:58.293Z,94566.28
2018-09-22T15:37:27.374Z,94557.76
2018-09-22T15:39:57.539Z,94551.05
2018-09-22T15:42:27.591Z,94547.30
2018-09-22T15:44:58.073Z,94544.09
2018-09-22T15:47:27.819Z,94540.43
2018-09-22T15:49:57.878Z,94533.91
2018-09-22T15:52:27.469Z,94525.14
2018-09-22T15:54:56.897Z,94526.91
2018-09-22T15:57:26.262Z,94519.25
2018-09-22T15:59:55.538Z,94513.69
2018-09-22T16:02:25.189Z,94517.38
2018-09-22T16:04:54.665Z,94510.59
2018-09-22T16:07:51.607Z,94510.90
2018-09-22T16:10:22.157Z,94506.16
2018-09-22T16:12:51.228Z,94510.83
2018-09-22T16:15:20.424Z,94516.13
2018-09-22T16:17:49.485Z,94517.00
2018-09-22T16:20:18.595Z,94519.41
2018-09-22T16:22:47.776Z,94516.23
2018-09-22T16:25:16.916Z,94519.73
2018-09-22T16:27:45.963Z,94517.00
2018-09-22T16:30:15.228Z,94514.82
2018-09-22T16:32:44.440Z,94522.13
2018-09-22T16:35:13.695Z,94531.10
2018-09-22T16:37:42.970Z,94533.46
2018-09-22T16:40:12.233Z,94532.98
2018-09-22T16:42:42.351Z,94531.77
2018-09-22T16:45:11.637Z,94538.32
2018-09-22T16:47:41.843Z,94547.78
2018-09-22T16:50:11.038Z,94546.41
2018-09-22T16:52:40.206Z,94549.13
2018-09-22T16:55:14.052Z,94552.91
2018-09-22T16:57:44.317Z,94555.95
2018-09-22T17:00:14.277Z,94556.52
2018-09-22T17:02:43.817Z,94564.28
2018-09-22T17:05:12.928Z,94559.55
2018-09-22T17:07:42.787Z,94559.75
2018-09-22T17:10:12.510Z,94555.99
2018-09-22T17:12:57.135Z,94557.77
2018-09-22T17:15:28.354Z,94559.62
2018-09-22T17:17:57.488Z,94553.82
2018-09-22T17:20:26.689Z,94549.10
2018-09-22T17:22:56.021Z,94544.54
2018-09-22T17:25:25.249Z,94537.34
2018-09-22T17:27:54.437Z,94542.89
2018-09-22T17:30:24.393Z,94549.47
2018-09-22T17:32:53.667Z,94549.91
2018-09-22T17:35:22.835Z,94553.16
2018-09-22T17:37:52.012Z,94561.30
2018-09-22T17:40:21.283Z,94554.77
2018-09-22T17:42:50.473Z,94551.08
2018-09-22T17:45:20.053Z,94564.38
2018-09-22T17:47:49.142Z,94564.95
2018-09-22T17:50:18.343Z,94564.16
2018-09-22T17:52:47.520Z,94567.15
2018-09-22T17:55:16.608Z,94565.27
2018-09-22T17:57:45.846Z,94575.45
2018-09-22T18:00:15.419Z,94588.34
2018-09-22T18:02:44.664Z,94587.32
2018-09-22T18:05:13.854Z,94589.09
2018-09-22T18:07:42.908Z,94597.39
2018-09-22T18:10:13.193Z,94593.34
2018-09-22T18:12:42.569Z,94598.80
2018-09-22T18:15:12.806Z,94607.72
2018-09-22T18:17:42.333Z,94618.38
2018-09-22T18:20:13.900Z,94593.83
2018-09-22T18:22:43.636Z,94607.34
2018-09-22T18:25:13.661Z,94617.44
2018-09-22T18:27:42.871Z,94594.63
2018-09-22T18:30:12.349Z,94583.60
2018-09-22T18:32:41.533Z,94577.23
2018-09-22T18:35:11.971Z,94541.77
2018-09-22T18:37:41.054Z,94578.55
2018-09-22T18:40:10.364Z,94570.36
2018-09-22T18:42:40.083Z,94583.72
2018-09-22T18:45:09.432Z,94576.33
2018-09-22T18:47:40.341Z,94570.91
2018-09-22T18:50:09.964Z,94560.79
2018-09-22T18:52:39.296Z,94573.64
2018-09-22T18:55:08.580Z,94586.65
2018-09-22T18:57:38.013Z,94597.61
2018-09-22T19:00:08.715Z,94591.69
2018-09-22T19:02:38.748Z,94592.03
2018-09-22T19:05:09.586Z,94588.69
2018-09-22T19:07:39.124Z,94579.16
2018-09-22T19:10:10.456Z,94600.34
2018-09-22T19:12:44.323Z,94603.27
2018-09-22T19:15:19.410Z,94592.59
2018-09-22T19:19:57.752Z,94599.48
2018-09-22T19:22:33.152Z,94604.77
2018-09-22T19:25:08.942Z,94596.16
2018-09-22T19:28:42.001Z,94611.27
2018-09-22T19:31:18.286Z,94625.86
2018-09-22T19:33:52.854Z,94620.19
2018-09-22T19:36:27.577Z,94613.16
2018-09-22T19:39:07.353Z,94624.62
2018-09-22T19:41:43.633Z,94616.21
2018-09-22T19:44:21.316Z,94622.48
2018-09-22T19:47:59.446Z,94611.34
2018-09-22T19:50:42.565Z,94616.78
2018-09-22T19:53:14.615Z,94622.68
2018-09-22T19:55:44.932Z,94617.36
2018-09-22T19:58:18.064Z,94619.40
2018-09-22T20:00:48.551Z,94622.45
2018-09-22T20:03:19.180Z,94618.54
2018-09-22T20:05:50.585Z,94618.89
2018-09-22T20:08:21.632Z,94613.54
2018-09-22T20:10:50.882Z,94616.59
2018-09-22T20:13:20.398Z,94621.53
2018-09-22T20:15:49.618Z,94620.58
2018-09-22T20:18:18.719Z,94609.11
2018-09-22T20:20:48.605Z,94612.81
2018-09-22T20:23:18.257Z,94616.02
2018-09-22T20:25:47.464Z,94608.12
2018-09-22T20:28:17.525Z,94609.78
2018-09-22T20:30:46.655Z,94602.30
2018-09-22T20:33:15.911Z,94599.75
2018-09-22T20:35:45.577Z,94604.05
2018-09-22T20:38:15.528Z,94603.63
2018-09-22T20:40:46.292Z,94602.70
2018-09-22T20:43:15.537Z,94601.75
2018-09-22T20:45:44.869Z,94610.18
2018-09-22T20:48:14.094Z,94596.94
2018-09-22T20:50:43.270Z,94590.83
2018-09-22T20:53:12.416Z,94593.97
2018-09-22T20:55:41.866Z,94596.15
2018-09-22T20:58:11.451Z,94597.45
2018-09-22T21:00:42.143Z,94599.72
2018-09-22T21:03:11.498Z,94611.30
2018-09-22T21:05:41.549Z,94612.33
2018-09-22T21:08:10.639Z,94605.56
2018-09-22T21:10:39.709Z,94614.83
2018-09-22T21:13:08.895Z,94616.11
2018-09-22T21:15:38.000Z,94603.13
2018-09-22T21:18:07.188Z,94604.43
2018-09-22T21:20:36.910Z,94604.96
2018-09-22T21:23:06.780Z,94602.77
2018-09-22T21:25:36.814Z,94609.80
2018-09-22T21:28:06.078Z,94604.27
2018-09-22T21:30:35.141Z,94605.89
2018-09-22T21:33:04.637Z,94603.50
2018-09-22T21:35:34.186Z,94613.39
2018-09-22T21:38:03.580Z,94609.30
2018-09-22T21:40:32.760Z,94617.34
2018-09-22T21:43:03.569Z,94601.18
2018-09-22T21:45:32.766Z,94603.34
2018-09-22T21:48:02.622Z,94603.13
2018-09-22T21:50:31.833Z,94605.16
2018-09-22T21:53:01.041Z,94613.72
2018-09-22T21:55:30.066Z,94614.98
2018-09-22T21:57:59.266Z,94614.63
2018-09-22T22:00:28.375Z,94615.77
2018-09-22T22:02:57.582Z,94610.78
2018-09-22T22:05:26.736Z,94605.27
2018-09-22T22:07:56.002Z,94613.31
2018-09-22T22:10:24.968Z,94606.57
2018-09-22T22:12:54.050Z,94609.96
2018-09-22T22:15:23.309Z,94608.50
2018-09-22T22:17:53.535Z,94606.70
2018-09-22T22:20:22.736Z,94597.64
2018-09-22T22:22:52.140Z,94590.55
2018-09-22T22:25:21.557Z,94596.80
2018-09-22T22:27:51.548Z,94592.80
2018-09-22T22:30:20.892Z,94606.73
2018-09-22T22:32:50.376Z,94605.27
2018-09-22T22:35:19.521Z,94600.42
2018-09-22T22:37:48.628Z,94600.10
2018-09-22T22:40:17.863Z,94589.44
2018-09-22T22:42:46.961Z,94583.31
2018-09-22T22:45:15.999Z,94582.02
2018-09-22T22:47:45.478Z,94584.33
2018-09-22T22:50:15.760Z,94584.25
2018-09-22T22:52:44.770Z,94588.95
2018-09-22T22:55:14.400Z,94581.56
2018-09-22T22:57:43.913Z,94586.34
2018-09-22T23:00:12.895Z,94589.25
2018-09-22T23:02:41.946Z,94587.20
2018-09-22T23:05:10.997Z,94586.33
2018-09-22T23:07:41.080Z,94586.92
2018-09-22T23:10:10.105Z,94583.01
2018-09-22T23:12:39.106Z,94582.80
2018-09-22T23:15:08.286Z,94588.67
2018-09-22T23:17:37.329Z,94595.78
2018-09-22T23:20:06.649Z,94599.10
2018-09-22T23:22:35.655Z,94608.45
2018-09-22T23:25:05.802Z,94614.75
2018-09-22T23:27:35.010Z,94624.59
2018-09-22T23:30:04.072Z,94631.41
2018-09-22T23:32:33.601Z,94626.27
2018-09-22T23:35:03.191Z,94621.50
2018-09-22T23:37:32.553Z,94619.33
2018-09-22T23:40:01.746Z,94626.83
2018-09-22T23:42:31.114Z,94629.14
2018-09-22T23:45:00.520Z,94629.98
2018-09-22T23:47:30.027Z,94631.48
2018-09-22T23:49:59.847Z,94635.19
2018-09-22T23:52:28.864Z,94630.70
2018-09-22T23:54:58.172Z,94623.88
2018-09-22T23:57:27.459Z,94616.92
2018-09-22T23:59:56.699Z,94622.63
